Time;durP1;ratioP1;P1;durP2;ratioP2;P2;SDS_P1;SDS_P2;PMS_P1;PMS_P2;Temp;Humidity;BMP_temperature;BMP_pressure;BME280_temperature;BME280_humidity;BME280_pressure;Samples;Min_cycle;Max_cycle;Signal;HPM_P1;HPM_P2
2021/04/14 00:01:59;;;;;;;6.70;2.10;;;5.80;97.10;;;;;;4993980;28;20084;-57
2021/04/14 00:04:26;;;;;;;4.00;1.90;;;5.70;97.00;;;;;;5011561;28;20030;-57
2021/04/14 00:07:03;;;;;;;6.30;1.60;;;5.60;97.20;;;;;;4994439;28;20068;-57
2021/04/14 00:09:29;;;;;;;3.97;1.65;;;5.60;97.20;;;;;;4994442;28;20040;-58
2021/04/14 00:11:56;;;;;;;13.57;2.53;;;5.60;98.90;;;;;;5012666;28;20029;-58
2021/04/14 00:14:24;;;;;;;5.30;1.77;;;5.60;97.60;;;;;;5011717;28;20037;-59
2021/04/14 00:16:49;;;;;;;5.82;2.15;;;5.60;97.50;;;;;;4994298;28;20029;-58
2021/04/14 00:19:15;;;;;;;5.22;2.53;;;5.60;97.40;;;;;;4993862;28;20041;-61
2021/04/14 00:21:41;;;;;;;5.93;2.28;;;5.60;97.50;;;;;;4994550;28;20434;-57
2021/04/14 00:24:09;;;;;;;7.03;1.85;;;5.60;97.30;;;;;;5012142;28;20442;-58
2021/04/14 00:26:35;;;;;;;3.63;1.73;;;5.60;97.60;;;;;;4993778;28;20069;-58
2021/04/14 00:29:01;;;;;;;8.48;2.42;;;5.60;98.70;;;;;;4994048;28;20111;-58
2021/04/14 00:31:35;;;;;;;5.93;1.80;;;5.60;98.60;;;;;;4993444;28;20167;-58
2021/04/14 00:34:14;;;;;;;6.75;2.45;;;5.60;98.00;;;;;;4997865;28;20384;-59
2021/04/14 00:36:42;;;;;;;3.53;1.80;;;5.60;97.70;;;;;;4974911;28;20061;-59
2021/04/14 00:39:17;;;;;;;4.60;2.20;;;5.60;97.70;;;;;;4992312;28;20034;-58
2021/04/14 00:41:44;;;;;;;4.20;1.42;;;5.50;97.60;;;;;;4975040;28;20420;-57
2021/04/14 00:44:11;;;;;;;5.70;1.73;;;5.40;97.80;;;;;;4974828;28;20026;-58
2021/04/14 00:46:36;;;;;;;3.85;2.00;;;5.30;98.00;;;;;;4970267;28;20132;-59
2021/04/14 00:49:02;;;;;;;5.60;1.60;;;5.30;97.90;;;;;;4972553;28;20460;-57
2021/04/14 00:51:28;;;;;;;3.17;1.88;;;5.30;98.30;;;;;;4970104;28;20030;-59
2021/04/14 00:53:54;;;;;;;5.05;1.70;;;5.30;97.90;;;;;;4972499;28;20031;-58
2021/04/14 00:56:20;;;;;;;3.33;1.60;;;5.20;98.10;;;;;;4970143;28;20058;-58
2021/04/14 00:58:46;;;;;;;4.13;1.52;;;5.20;98.10;;;;;;4971105;28;20027;-57
2021/04/14 01:01:12;;;;;;;3.15;1.58;;;5.10;98.10;;;;;;4972164;28;20034;-59
2021/04/14 01:03:38;;;;;;;3.58;1.73;;;5.20;98.20;;;;;;4978091;28;20031;-59
2021/04/14 01:06:23;;;;;;;4.22;1.80;;;5.10;98.40;;;;;;4970932;28;20085;-58
2021/04/14 01:08:49;;;;;;;7.18;1.80;;;5.10;99.90;;;;;;4972442;28;20137;-57
2021/04/14 01:11:15;;;;;;;4.53;2.10;;;5.00;98.70;;;;;;4970269;28;20121;-61
2021/04/14 01:13:43;;;;;;;3.42;1.98;;;5.20;98.70;;;;;;4970877;28;20027;-57
2021/04/14 01:16:08;;;;;;;3.35;1.70;;;5.20;98.50;;;;;;4972004;28;20054;-59
2021/04/14 01:18:36;;;;;;;6.63;1.60;;;5.10;98.60;;;;;;4970294;28;20030;-59
2021/04/14 01:21:05;;;;;;;6.75;1.80;;;5.10;98.80;;;;;;4972283;28;20130;-59
2021/04/14 01:23:31;;;;;;;3.05;1.70;;;5.10;98.90;;;;;;4971004;28;20041;-57
2021/04/14 01:25:58;;;;;;;5.95;2.20;;;5.10;98.90;;;;;;4969655;28;20185;-58
2021/04/14 01:28:31;;;;;;;3.55;1.60;;;5.10;98.90;;;;;;4970626;28;20035;-58
2021/04/14 01:30:59;;;;;;;4.93;1.77;;;5.10;98.90;;;;;;4971318;28;20122;-59
2021/04/14 01:33:28;;;;;;;3.72;1.73;;;5.10;99.00;;;;;;4979969;28;20038;-56
2021/04/14 01:35:54;;;;;;;2.00;1.67;;;5.10;99.00;;;;;;4989388;28;20035;-56
2021/04/14 01:38:19;;;;;;;5.22;2.13;;;5.00;98.80;;;;;;4988658;28;20030;-58
2021/04/14 01:40:46;;;;;;;6.65;2.05;;;4.90;99.30;;;;;;4989253;28;20413;-57
2021/04/14 01:43:11;;;;;;;3.63;1.65;;;4.90;99.20;;;;;;4990677;28;20061;-57
2021/04/14 01:45:40;;;;;;;5.20;2.08;;;5.00;99.10;;;;;;4987852;28;20094;-57
2021/04/14 01:48:07;;;;;;;6.82;1.77;;;5.00;99.20;;;;;;4989386;28;20429;-58
2021/04/14 01:50:34;;;;;;;3.88;1.60;;;5.00;99.10;;;;;;4988141;28;20046;-58
2021/04/14 01:53:00;;;;;;;5.18;2.03;;;5.00;99.40;;;;;;4989382;28;20026;-58
2021/04/14 01:55:27;;;;;;;3.35;1.90;;;5.00;99.40;;;;;;4988473;28;20563;-58
2021/04/14 01:57:54;;;;;;;6.82;2.63;;;5.00;99.60;;;;;;4990625;28;20062;-58
2021/04/14 02:00:22;;;;;;;5.30;2.22;;;5.00;99.70;;;;;;4989339;28;20034;-61
2021/04/14 02:02:49;;;;;;;3.75;2.10;;;5.00;99.70;;;;;;4989332;28;20041;-58
2021/04/14 02:05:15;;;;;;;9.02;2.78;;;4.90;99.60;;;;;;4989323;28;20054;-57
2021/04/14 02:07:41;;;;;;;5.75;2.00;;;4.90;99.90;;;;;;4989761;28;20080;-59
2021/04/14 02:10:09;;;;;;;4.13;2.15;;;4.90;99.80;;;;;;4989093;28;20391;-58
2021/04/14 02:12:35;;;;;;;4.93;2.03;;;4.80;99.70;;;;;;4989929;28;20138;-57
2021/04/14 02:15:03;;;;;;;3.95;2.47;;;4.80;99.60;;;;;;4990316;28;20030;-57
2021/04/14 02:17:29;;;;;;;4.22;2.20;;;4.70;99.70;;;;;;4989301;28;20050;-59
2021/04/14 02:19:55;;;;;;;7.18;2.92;;;4.60;99.90;;;;;;4988976;28;20120;-59
2021/04/14 02:22:20;;;;;;;5.63;2.03;;;4.70;99.90;;;;;;4990145;28;20044;-58
2021/04/14 02:24:46;;;;;;;5.97;2.45;;;4.60;99.90;;;;;;4990392;28;20029;-58
2021/04/14 02:27:12;;;;;;;6.47;2.78;;;4.60;99.90;;;;;;4989866;28;20041;-58
2021/04/14 02:29:37;;;;;;;3.40;2.20;;;4.70;99.90;;;;;;4989550;28;20026;-59
2021/04/14 02:32:04;;;;;;;7.68;3.03;;;4.70;99.90;;;;;;4990445;28;20113;-59
2021/04/14 02:34:30;;;;;;;8.57;2.88;;;4.60;99.90;;;;;;4989589;28;20042;-58
2021/04/14 02:36:55;;;;;;;3.88;2.20;;;4.60;99.90;;;;;;4988493;28;20404;-58
2021/04/14 02:39:21;;;;;;;3.58;2.08;;;4.60;99.90;;;;;;4988457;28;20034;-57
2021/04/14 02:41:47;;;;;;;3.28;2.20;;;4.50;99.90;;;;;;4990352;28;20031;-59
2021/04/14 02:44:13;;;;;;;7.20;2.63;;;4.40;99.90;;;;;;4988650;28;20027;-58
2021/04/14 02:46:39;;;;;;;10.13;2.72;;;4.40;99.90;;;;;;4987623;28;20052;-58
2021/04/14 02:49:04;;;;;;;13.70;3.00;;;4.30;99.90;;;;;;4988818;28;20069;-58
2021/04/14 02:51:30;;;;;;;4.70;2.40;;;4.30;99.90;;;;;;4988115;28;20077;-58
2021/04/14 02:53:56;;;;;;;3.75;2.90;;;4.30;99.90;;;;;;4988175;28;20037;-58
2021/04/14 02:56:21;;;;;;;7.35;3.03;;;4.40;99.90;;;;;;4987762;28;20034;-59
2021/04/14 02:58:47;;;;;;;5.07;3.45;;;4.50;99.90;;;;;;4989785;28;20213;-57
2021/04/14 03:01:15;;;;;;;7.80;3.03;;;4.40;99.90;;;;;;4988654;28;20032;-58
2021/04/14 03:03:41;;;;;;;4.85;3.10;;;4.30;99.90;;;;;;4989288;28;20464;-57
2021/04/14 03:06:07;;;;;;;6.95;3.28;;;4.50;99.90;;;;;;4988375;28;20050;-58
2021/04/14 03:08:32;;;;;;;4.75;3.15;;;4.50;99.90;;;;;;4989370;28;20125;-58
2021/04/14 03:10:58;;;;;;;8.23;3.63;;;4.50;99.90;;;;;;4987987;28;20034;-57
2021/04/14 03:13:25;;;;;;;4.95;2.95;;;4.50;99.90;;;;;;4989263;28;20483;-58
2021/04/14 03:15:51;;;;;;;6.43;3.13;;;4.50;99.90;;;;;;4990064;28;20062;-58
2021/04/14 03:18:17;;;;;;;7.07;3.22;;;4.50;99.90;;;;;;4991006;28;20030;-58
2021/04/14 03:20:44;;;;;;;7.25;3.13;;;4.50;99.90;;;;;;4991060;28;20060;-58
2021/04/14 03:23:11;;;;;;;7.00;3.35;;;4.60;99.90;;;;;;4993668;28;20030;-58
2021/04/14 03:25:38;;;;;;;10.60;3.45;;;4.70;99.90;;;;;;4991045;28;20132;-58
2021/04/14 03:28:05;;;;;;;7.30;2.88;;;4.70;99.90;;;;;;4992309;28;20030;-58
2021/04/14 03:30:31;;;;;;;4.05;3.22;;;4.40;99.90;;;;;;4991320;28;20380;-58
2021/04/14 03:32:57;;;;;;;5.75;3.00;;;4.40;99.90;;;;;;4993157;28;20050;-58
2021/04/14 03:35:24;;;;;;;6.68;3.13;;;4.30;99.90;;;;;;4991374;28;20074;-60
2021/04/14 03:37:50;;;;;;;9.27;3.30;;;4.30;99.90;;;;;;4991923;28;20026;-58
2021/04/14 03:40:17;;;;;;;8.07;3.10;;;4.30;99.90;;;;;;4992093;28;20026;-59
2021/04/14 03:42:43;;;;;;;10.10;4.00;;;4.30;99.90;;;;;;4990571;28;20030;-58
2021/04/14 03:45:14;;;;;;;5.18;3.20;;;4.30;99.90;;;;;;4992798;28;20362;-58
2021/04/14 03:47:40;;;;;;;5.83;2.37;;;4.40;99.90;;;;;;4994264;28;20033;-57
2021/04/14 03:50:08;;;;;;;6.03;3.38;;;4.30;99.90;;;;;;5013001;28;20060;-58
2021/04/14 03:52:34;;;;;;;5.35;3.33;;;4.40;99.90;;;;;;4994125;28;20391;-58
2021/04/14 03:55:00;;;;;;;7.63;4.28;;;4.30;99.90;;;;;;4994833;28;20026;-58
2021/04/14 03:57:26;;;;;;;5.57;3.08;;;4.30;99.90;;;;;;4994123;28;20116;-60
2021/04/14 03:59:51;;;;;;;4.00;2.83;;;4.30;99.90;;;;;;5011960;28;20096;-59
2021/04/14 04:02:17;;;;;;;6.07;2.80;;;4.20;99.90;;;;;;5012044;28;20037;-59
2021/04/14 04:04:43;;;;;;;5.32;3.22;;;4.20;99.90;;;;;;4993639;28;20134;-58
2021/04/14 04:07:08;;;;;;;7.80;3.63;;;4.20;99.90;;;;;;4994811;28;20376;-58
2021/04/14 04:09:34;;;;;;;4.30;3.08;;;4.20;99.90;;;;;;5011736;28;20030;-59
2021/04/14 04:12:01;;;;;;;6.43;3.28;;;4.10;99.90;;;;;;4994886;28;20026;-58
2021/04/14 04:14:32;;;;;;;4.03;2.90;;;4.10;99.90;;;;;;4993859;28;20422;-59
2021/04/14 04:16:58;;;;;;;9.15;3.33;;;4.20;99.90;;;;;;4994281;28;20213;-59
2021/04/14 04:19:23;;;;;;;5.13;2.90;;;4.20;99.90;;;;;;4994277;28;20436;-60
2021/04/14 04:21:49;;;;;;;5.60;3.38;;;4.20;99.90;;;;;;5011861;28;20026;-58
2021/04/14 04:24:15;;;;;;;4.97;2.47;;;4.10;99.90;;;;;;4994135;28;20077;-57
2021/04/14 04:26:40;;;;;;;6.43;2.85;;;4.00;99.90;;;;;;4993378;28;20025;-58
2021/04/14 04:29:06;;;;;;;10.02;4.40;;;4.00;99.90;;;;;;5011774;28;20026;-57
2021/04/14 04:31:31;;;;;;;6.78;3.92;;;4.10;99.90;;;;;;5010041;28;20109;-58
2021/04/14 04:33:57;;;;;;;7.28;3.70;;;4.00;99.90;;;;;;4980406;28;20034;-57
2021/04/14 04:36:23;;;;;;;6.97;3.20;;;4.00;99.90;;;;;;4992364;28;20085;-57
2021/04/14 04:38:49;;;;;;;11.52;3.78;;;4.00;99.90;;;;;;4992186;28;20471;-57
2021/04/14 04:41:14;;;;;;;7.32;2.90;;;4.00;99.90;;;;;;4974470;28;20432;-57
2021/04/14 04:43:42;;;;;;;12.57;3.05;;;4.00;99.90;;;;;;4973875;28;20117;-57
2021/04/14 04:46:08;;;;;;;4.57;3.08;;;3.90;99.90;;;;;;4970443;28;20296;-57
2021/04/14 04:48:34;;;;;;;8.00;3.67;;;3.90;99.90;;;;;;4972140;28;20038;-59
2021/04/14 04:50:59;;;;;;;4.97;3.25;;;4.00;99.90;;;;;;4971007;28;20041;-58
2021/04/14 04:53:25;;;;;;;9.23;3.38;;;4.00;99.90;;;;;;4970603;28;20110;-59
2021/04/14 04:55:52;;;;;;;7.60;3.20;;;4.00;99.90;;;;;;4971023;28;20487;-59
2021/04/14 04:58:19;;;;;;;8.73;3.65;;;4.00;99.90;;;;;;4971404;28;20122;-59
2021/04/14 05:00:47;;;;;;;7.00;2.85;;;3.90;99.90;;;;;;4971862;28;20059;-58
2021/04/14 05:03:14;;;;;;;15.85;4.15;;;4.00;99.90;;;;;;4978303;28;20089;-58
2021/04/14 05:05:41;;;;;;;4.43;3.03;;;4.10;99.90;;;;;;4991020;28;20026;-58
2021/04/14 05:08:09;;;;;;;12.65;3.40;;;4.00;99.90;;;;;;4991894;28;20076;-58
2021/04/14 05:10:35;;;;;;;4.57;3.50;;;4.00;99.90;;;;;;4989736;28;20122;-58
2021/04/14 05:13:03;;;;;;;5.85;2.85;;;4.20;99.90;;;;;;4991518;28;20041;-58
2021/04/14 05:15:32;;;;;;;4.43;2.90;;;4.20;99.90;;;;;;4991053;28;20034;-59
2021/04/14 05:17:59;;;;;;;9.02;2.70;;;4.00;99.90;;;;;;4989505;28;20068;-57
2021/04/14 05:20:25;;;;;;;4.60;2.75;;;4.00;99.90;;;;;;4991250;28;20030;-58
2021/04/14 05:22:51;;;;;;;6.20;2.53;;;4.00;99.90;;;;;;4989324;28;20026;-58
2021/04/14 05:25:21;;;;;;;6.50;2.53;;;4.20;99.90;;;;;;4991351;28;20038;-58
2021/04/14 05:27:48;;;;;;;6.20;2.58;;;4.30;99.90;;;;;;4989476;28;20169;-59
2021/04/14 05:30:15;;;;;;;5.63;2.45;;;4.30;99.90;;;;;;4990500;28;20026;-59
2021/04/14 05:32:41;;;;;;;4.68;2.60;;;4.40;99.90;;;;;;4991251;28;20369;-59
2021/04/14 05:35:09;;;;;;;10.85;2.15;;;4.40;99.90;;;;;;4992243;28;20030;-60
2021/04/14 05:37:34;;;;;;;4.50;2.75;;;4.50;99.90;;;;;;4989666;28;20365;-58
2021/04/14 05:40:00;;;;;;;6.43;2.50;;;4.50;99.90;;;;;;4990527;28;20026;-59
2021/04/14 05:42:27;;;;;;;8.32;2.50;;;4.60;99.90;;;;;;4990217;28;20084;-58
2021/04/14 05:44:53;;;;;;;4.30;2.30;;;4.70;99.90;;;;;;4990393;28;20034;-59
2021/04/14 05:47:19;;;;;;;4.38;2.05;;;4.70;99.90;;;;;;4990102;28;20476;-58
2021/04/14 05:49:45;;;;;;;5.25;2.80;;;4.80;99.90;;;;;;4989542;28;20031;-59
2021/04/14 05:52:11;;;;;;;9.32;3.80;;;4.90;99.90;;;;;;4989756;28;20499;-59
2021/04/14 05:54:36;;;;;;;7.07;4.20;;;5.20;99.90;;;;;;4988690;28;20026;-59
2021/04/14 05:57:02;;;;;;;11.45;3.35;;;5.10;99.90;;;;;;4989837;28;20140;-59
2021/04/14 05:59:29;;;;;;;7.63;2.70;;;5.20;99.90;;;;;;4989481;28;20417;-59
2021/04/14 06:01:54;;;;;;;4.68;2.13;;;5.30;99.90;;;;;;4987719;28;20031;-58
2021/04/14 06:04:20;;;;;;;9.82;2.33;;;5.30;99.90;;;;;;4972127;28;20118;-58
2021/04/14 06:06:46;;;;;;;5.10;2.10;;;5.50;99.90;;;;;;4970958;28;20436;-59
2021/04/14 06:09:11;;;;;;;5.90;2.50;;;5.60;99.70;;;;;;4970762;28;20499;-59
2021/04/14 06:11:40;;;;;;;8.35;2.45;;;5.90;99.70;;;;;;4969029;28;20407;-60
2021/04/14 06:14:06;;;;;;;8.27;2.97;;;5.80;99.50;;;;;;4970110;28;20038;-59
2021/04/14 06:16:32;;;;;;;5.63;2.92;;;5.90;99.40;;;;;;4969734;28;20365;-61
2021/04/14 06:18:58;;;;;;;7.22;3.00;;;6.00;99.30;;;;;;4969847;28;20520;-58
2021/04/14 06:21:25;;;;;;;6.78;2.53;;;6.10;98.80;;;;;;4969631;28;20085;-59
2021/04/14 06:23:52;;;;;;;4.88;2.50;;;6.00;98.70;;;;;;4969279;28;20030;-59
2021/04/14 06:28:55;;;;;;;8.60;3.63;;;6.20;98.60;;;;;;4970716;28;20540;-58
2021/04/14 06:31:21;;;;;;;2.83;2.25;;;6.20;98.30;;;;;;4969096;28;20127;-59
2021/04/14 06:33:50;;;;;;;7.05;3.00;;;6.30;98.40;;;;;;4982685;28;20109;-59
2021/04/14 06:36:15;;;;;;;6.45;3.22;;;6.40;98.30;;;;;;4989322;28;20106;-61
2021/04/14 06:38:43;;;;;;;6.10;2.47;;;6.60;97.80;;;;;;4989217;28;20136;-58
2021/04/14 06:44:22;;;;;;;6.40;2.00;;;6.70;97.30;;;;;;4963524;28;20035;-59
2021/04/14 06:46:50;;;;;;;4.75;2.92;;;6.70;97.50;;;;;;4987626;28;20125;-58
2021/04/14 06:49:37;;;;;;;6.60;2.38;;;6.90;97.20;;;;;;4989153;28;20105;-58
2021/04/14 06:52:23;;;;;;;9.13;2.75;;;7.10;96.80;;;;;;4989602;28;20061;-59
2021/04/14 06:55:07;;;;;;;3.92;2.33;;;7.20;96.50;;;;;;4991858;28;20056;-59
2021/04/14 06:57:37;;;;;;;3.97;2.33;;;7.20;96.70;;;;;;4993008;28;20125;-59
2021/04/14 07:00:27;;;;;;;9.98;2.78;;;7.30;96.40;;;;;;4992645;28;20048;-58
2021/04/14 07:03:19;;;;;;;6.80;2.45;;;7.30;96.50;;;;;;4993073;28;20030;-59
2021/04/14 07:05:52;;;;;;;9.50;3.05;;;7.40;96.50;;;;;;4990992;28;20112;-59
2021/04/14 07:08:26;;;;;;;6.90;2.65;;;7.40;96.30;;;;;;4992846;28;20034;-58
2021/04/14 07:10:57;;;;;;;7.75;2.60;;;7.30;96.40;;;;;;4991295;28;20331;-59
2021/04/14 07:13:23;;;;;;;5.75;3.03;;;7.30;96.40;;;;;;4994207;28;20022;-58
2021/04/14 07:15:55;;;;;;;6.30;2.38;;;7.40;96.60;;;;;;4991693;28;20038;-59
2021/04/14 07:18:23;;;;;;;6.78;2.42;;;7.40;96.50;;;;;;4992357;28;20034;-58
2021/04/14 07:20:55;;;;;;;9.77;3.03;;;7.60;96.40;;;;;;4991546;28;20026;-58
2021/04/14 07:23:44;;;;;;;7.22;2.60;;;7.90;96.00;;;;;;4993633;28;20113;-58
2021/04/14 07:26:24;;;;;;;5.82;2.70;;;8.40;95.60;;;;;;4992305;28;20431;-59
2021/04/14 07:29:03;;;;;;;10.32;2.80;;;8.60;99.90;;;;;;4992794;28;20022;-59
2021/04/14 07:31:44;;;;;;;5.72;3.17;;;8.90;94.10;;;;;;4993281;28;20391;-59
2021/04/14 07:34:22;;;;;;;4.45;2.28;;;9.30;93.30;;;;;;4992864;28;20022;-59
2021/04/14 07:37:05;;;;;;;4.07;2.47;;;9.20;93.20;;;;;;4991976;28;20034;-59
2021/04/14 07:39:45;;;;;;;6.38;2.63;;;9.40;92.90;;;;;;4992467;28;20356;-59
2021/04/14 07:42:33;;;;;;;6.78;2.88;;;9.60;92.20;;;;;;4992504;28;20026;-59
2021/04/14 07:45:13;;;;;;;6.57;2.50;;;10.20;92.40;;;;;;4992785;28;20372;-62
2021/04/14 07:48:10;;;;;;;6.57;3.17;;;10.30;91.20;;;;;;4991580;28;20081;-59
2021/04/14 07:50:38;;;;;;;4.32;2.35;;;10.40;90.20;;;;;;4990642;28;20117;-62
2021/04/14 07:53:22;;;;;;;8.07;2.03;;;10.60;89.20;;;;;;4992473;28;20030;-59
2021/04/14 07:56:20;;;;;;;6.95;3.33;;;10.90;88.10;;;;;;4992034;28;20121;-60
2021/04/14 07:58:50;;;;;;;6.90;2.67;;;10.80;87.70;;;;;;4991583;28;20512;-59
2021/04/14 08:01:23;;;;;;;6.40;2.50;;;10.90;87.60;;;;;;4991851;28;20034;-58
2021/04/14 08:03:50;;;;;;;7.72;2.60;;;11.00;86.00;;;;;;4992742;28;20022;-59
2021/04/14 08:06:26;;;;;;;4.32;2.03;;;11.00;84.80;;;;;;4991513;28;20104;-59
2021/04/14 08:08:53;;;;;;;3.78;2.25;;;11.00;85.00;;;;;;4991121;28;20413;-58
2021/04/14 08:11:32;;;;;;;6.95;1.95;;;11.40;83.40;;;;;;4993236;28;20062;-58
2021/04/14 08:14:09;;;;;;;12.95;2.97;;;11.60;83.00;;;;;;4991339;28;20356;-60
2021/04/14 08:16:40;;;;;;;4.93;2.03;;;11.90;81.20;;;;;;4993107;28;20038;-60
2021/04/14 08:19:17;;;;;;;5.28;1.65;;;12.30;80.60;;;;;;4993097;28;20117;-69
2021/04/14 08:21:54;;;;;;;4.13;1.45;;;12.20;78.60;;;;;;4991164;28;20033;-59
2021/04/14 08:24:37;;;;;;;5.32;1.98;;;11.90;78.50;;;;;;4992043;28;20077;-58
2021/04/14 08:27:14;;;;;;;3.88;1.50;;;11.80;78.70;;;;;;4991498;28;20034;-60
2021/04/14 08:29:40;;;;;;;7.53;1.55;;;12.30;76.50;;;;;;4991563;28;20030;-61
2021/04/14 08:32:10;;;;;;;1.80;1.20;;;12.10;75.40;;;;;;4991714;28;20085;-61
2021/04/14 08:34:38;;;;;;;2.35;1.00;;;13.00;90.00;;;;;;4991576;28;20455;-61
2021/04/14 08:37:08;;;;;;;5.65;1.02;;;13.30;90.70;;;;;;4990914;28;20093;-61
2021/04/14 08:39:34;;;;;;;2.13;0.90;;;13.60;86.10;;;;;;4992113;28;20031;-59
2021/04/14 08:42:06;;;;;;;8.13;1.17;;;13.30;79.00;;;;;;4990489;28;20089;-60
2021/04/14 08:44:35;;;;;;;8.93;1.67;;;13.40;78.20;;;;;;4991090;28;20061;-59
2021/04/14 08:47:25;;;;;;;4.38;1.90;;;13.50;76.70;;;;;;4989639;28;20081;-59
2021/04/14 08:50:01;;;;;;;2.55;1.10;;;13.40;73.90;;;;;;4989051;28;20041;-61
2021/04/14 08:52:29;;;;;;;2.35;1.15;;;13.20;68.80;;;;;;4989642;28;20428;-61
2021/04/14 08:54:57;;;;;;;4.65;1.10;;;12.60;66.40;;;;;;4991199;28;20027;-61
2021/04/14 08:57:23;;;;;;;5.70;1.17;;;12.20;68.50;;;;;;4990847;28;20041;-59
2021/04/14 08:59:50;;;;;;;5.63;1.38;;;12.20;67.70;;;;;;4990437;28;20031;-62
2021/04/14 09:02:18;;;;;;;3.63;1.50;;;12.20;68.10;;;;;;4991687;28;20173;-62
2021/04/14 09:04:49;;;;;;;3.00;1.20;;;12.00;68.00;;;;;;4992053;28;20487;-61
2021/04/14 09:07:19;;;;;;;3.90;1.17;;;12.40;68.90;;;;;;4991744;28;20092;-62
2021/04/14 09:09:48;;;;;;;3.72;1.08;;;12.90;68.00;;;;;;4989112;28;20045;-59
2021/04/14 09:12:16;;;;;;;2.88;1.50;;;12.60;66.10;;;;;;4990106;28;20029;-59
2021/04/14 09:14:44;;;;;;;5.60;1.40;;;12.90;65.20;;;;;;4989634;28;20057;-61
2021/04/14 09:17:14;;;;;;;9.55;1.55;;;12.90;63.30;;;;;;4991200;28;20039;-61
2021/04/14 09:19:43;;;;;;;5.95;1.55;;;13.10;65.10;;;;;;4989726;28;20077;-63
2021/04/14 09:22:17;;;;;;;6.47;1.48;;;13.60;64.20;;;;;;4989248;28;20027;-60
2021/04/14 09:25:07;;;;;;;10.52;2.40;;;13.80;61.20;;;;;;4989495;28;20121;-62
2021/04/14 09:27:39;;;;;;;4.03;1.52;;;14.20;59.70;;;;;;4979408;28;20095;-61
2021/04/14 09:30:19;;;;;;;11.27;2.15;;;14.40;59.90;;;;;;4971353;28;20023;-60
2021/04/14 09:32:48;;;;;;;3.47;1.33;;;14.50;59.00;;;;;;4974194;28;20035;-60
2021/04/14 09:35:20;;;;;;;2.72;1.30;;;14.90;58.50;;;;;;4989919;28;20419;-59
2021/04/14 09:37:45;;;;;;;;;;;15.10;58.10;;;;;;4991083;28;20034;-59
2021/04/14 09:40:24;;;;;;;7.53;2.40;;;15.60;56.50;;;;;;4991430;28;20362;-59
2021/04/14 09:42:50;;;;;;;7.00;1.88;;;15.70;55.30;;;;;;4990341;28;20049;-59
2021/04/14 09:45:16;;;;;;;5.93;1.02;;;;;;;;;;4991064;28;20475;-59
2021/04/14 09:47:43;;;;;;;1.40;1.17;;;16.10;51.90;;;;;;4989189;28;20042;-61
2021/04/14 09:50:33;;;;;;;4.50;1.10;;;15.90;52.20;;;;;;4989532;28;20033;-59
2021/04/14 09:53:06;;;;;;;5.70;1.75;;;15.70;52.90;;;;;;4994804;28;20030;-58
2021/04/14 09:55:45;;;;;;;4.32;1.70;;;16.00;50.90;;;;;;5006077;28;20200;-59
2021/04/14 09:58:33;;;;;;;4.93;1.73;;;16.30;51.00;;;;;;5009489;28;20121;-59
2021/04/14 10:01:23;;;;;;;4.10;1.30;;;16.50;50.70;;;;;;5008094;28;20492;-59
2021/04/14 10:03:53;;;;;;;3.58;1.52;;;16.20;50.00;;;;;;4995868;28;20459;-59
2021/04/14 10:06:22;;;;;;;2.95;1.30;;;16.40;48.80;;;;;;4989825;28;20061;-59
2021/04/14 10:08:49;;;;;;;11.48;1.58;;;;;;;;;;4988932;28;20484;-47
2021/04/14 10:11:36;;;;;;;4.53;1.05;;;17.70;62.20;;;;;;4990785;28;20033;-47
2021/04/14 10:14:08;;;;;;;2.15;0.90;;;;;;;;;;4990522;28;20037;-47
2021/04/14 10:16:34;;;;;;;3.38;1.50;;;18.80;59.20;;;;;;4988816;28;20145;-49
2021/04/14 10:19:06;;;;;;;2.40;1.00;;;19.30;55.10;;;;;;4994935;28;20054;-48
2021/04/14 10:21:35;;;;;;;2.40;0.75;;;19.70;53.00;;;;;;5006422;28;20040;-47
2021/04/14 10:24:06;;;;;;;3.50;1.00;;;20.00;51.40;;;;;;5006460;28;20029;-60
2021/04/14 10:26:35;;;;;;;5.30;1.37;;;20.10;47.90;;;;;;5007647;28;20038;-47
2021/04/14 10:29:07;;;;;;;9.93;1.38;;;19.60;49.70;;;;;;5005368;28;20065;-53
2021/04/14 10:31:34;;;;;;;6.10;1.13;;;19.70;49.80;;;;;;5007088;28;20500;-48
2021/04/14 10:34:13;;;;;;;5.93;1.38;;;19.60;48.40;;;;;;4993455;28;20093;-48
2021/04/14 10:36:42;;;;;;;3.30;1.20;;;19.20;47.00;;;;;;4988001;28;20060;-52
2021/04/14 10:39:18;;;;;;;2.13;1.00;;;19.40;47.80;;;;;;4986808;28;20030;-47
2021/04/14 10:41:46;;;;;;;3.55;1.00;;;19.90;47.80;;;;;;4988834;28;20030;-62
2021/04/14 10:44:25;;;;;;;2.28;1.30;;;19.40;41.10;;;;;;4989349;28;20053;-59
2021/04/14 10:47:09;;;;;;;8.80;1.45;;;19.00;40.80;;;;;;4988541;28;20133;-59
2021/04/14 10:49:38;;;;;;;3.55;1.55;;;18.70;38.30;;;;;;4988729;28;20019;-60
2021/04/14 10:52:18;;;;;;;3.50;1.50;;;18.70;38.70;;;;;;4996777;28;20033;-59
2021/04/14 10:54:48;;;;;;;3.88;1.75;;;18.20;38.90;;;;;;5004786;28;20076;-63
2021/04/14 10:57:28;;;;;;;5.03;1.27;;;18.30;40.50;;;;;;5006468;28;20034;-59
2021/04/14 11:00:08;;;;;;;2.63;1.20;;;18.20;40.20;;;;;;5008956;28;20036;-58
2021/04/14 11:02:37;;;;;;;4.85;1.65;;;17.40;40.30;;;;;;5007576;28;20037;-59
2021/04/14 11:05:04;;;;;;;5.03;1.33;;;17.70;41.90;;;;;;4988165;28;20046;-60
2021/04/14 11:07:32;;;;;;;5.60;1.85;;;17.70;41.80;;;;;;4988236;28;20046;-59
2021/04/14 11:10:04;;;;;;;4.05;1.60;;;17.60;43.30;;;;;;4987774;28;20041;-58
2021/04/14 11:12:30;;;;;;;1.83;1.33;;;17.00;42.10;;;;;;4988301;28;20046;-59
2021/04/14 11:15:01;;;;;;;5.38;1.52;;;16.50;42.90;;;;;;4988923;28;20057;-59
2021/04/14 11:17:29;;;;;;;5.03;1.85;;;15.80;43.90;;;;;;4987962;28;20034;-59
2021/04/14 11:20:02;;;;;;;5.63;1.73;;;15.30;43.50;;;;;;4987236;28;20049;-58
2021/04/14 11:22:44;;;;;;;3.45;1.73;;;14.90;43.40;;;;;;4990183;28;20089;-58
2021/04/14 11:25:21;;;;;;;2.88;1.40;;;14.90;44.00;;;;;;4988860;28;20085;-59
2021/04/14 11:28:05;;;;;;;3.35;1.13;;;15.00;42.90;;;;;;4988996;28;20074;-61
2021/04/14 11:30:32;;;;;;;2.40;1.10;;;15.80;42.00;;;;;;4988095;28;20034;-59
2021/04/14 11:33:02;;;;;;;8.50;1.52;;;16.30;41.00;;;;;;4987342;28;20027;-58
2021/04/14 11:35:39;;;;;;;1.83;1.17;;;16.50;40.70;;;;;;4988456;28;20030;-58
2021/04/14 11:38:05;;;;;;;3.95;1.10;;;17.00;40.20;;;;;;4987760;28;20122;-60
2021/04/14 11:40:40;;;;;;;3.80;1.13;;;16.10;40.60;;;;;;4989565;28;20456;-58
2021/04/14 11:43:27;;;;;;;1.58;1.48;;;16.60;39.50;;;;;;4991006;28;20325;-59
2021/04/14 11:46:02;;;;;;;2.53;1.30;;;15.90;39.50;;;;;;4991783;28;20173;-58
2021/04/14 11:48:34;;;;;;;5.97;1.27;;;16.70;41.40;;;;;;4995028;28;20022;-58
2021/04/14 11:51:16;;;;;;;4.63;1.17;;;16.10;40.30;;;;;;4990123;28;20037;-59
2021/04/14 11:53:50;;;;;;;2.38;1.15;;;16.20;40.60;;;;;;5012970;28;20018;-58
2021/04/14 11:56:53;;;;;;;6.90;2.25;;;15.50;40.20;;;;;;5012495;28;20034;-58
2021/04/14 11:59:31;;;;;;;3.53;1.30;;;15.60;43.90;;;;;;4981599;28;20169;-58
2021/04/14 12:02:04;;;;;;;4.65;1.45;;;16.10;41.10;;;;;;4993696;28;20049;-59
2021/04/14 12:04:31;;;;;;;3.25;1.83;;;15.90;40.50;;;;;;4994369;28;20026;-59
2021/04/14 12:06:57;;;;;;;2.58;1.30;;;15.50;39.90;;;;;;4994182;28;20399;-59
2021/04/14 12:09:23;;;;;;;2.55;1.35;;;16.00;42.80;;;;;;4994971;28;20021;-60
2021/04/14 12:12:03;;;;;;;5.45;1.73;;;15.80;42.30;;;;;;5012221;28;20095;-62
2021/04/14 12:14:30;;;;;;;3.72;1.10;;;15.60;42.40;;;;;;5012807;28;20107;-60
2021/04/14 12:16:55;;;;;;;4.72;1.50;;;15.40;41.90;;;;;;4994491;28;20168;-59
2021/04/14 12:19:22;;;;;;;2.25;1.33;;;14.90;42.70;;;;;;5012728;28;20117;-59
2021/04/14 12:21:49;;;;;;;5.15;1.35;;;14.70;42.20;;;;;;4994527;28;20026;-61
2021/04/14 12:24:15;;;;;;;2.92;1.23;;;14.40;42.90;;;;;;4994586;28;20022;-57
2021/04/14 12:26:41;;;;;;;4.93;1.60;;;14.00;44.90;;;;;;4994133;28;20100;-59
2021/04/14 12:29:07;;;;;;;3.67;1.70;;;14.00;44.70;;;;;;4994180;28;20034;-59
2021/04/14 12:31:33;;;;;;;5.38;1.50;;;14.00;44.90;;;;;;4994082;28;20033;-58
2021/04/14 12:34:00;;;;;;;3.83;1.70;;;13.50;44.50;;;;;;4992871;28;20033;-59
2021/04/14 12:36:26;;;;;;;7.78;1.80;;;13.40;45.50;;;;;;4994122;28;20084;-58
2021/04/14 12:38:53;;;;;;;4.43;2.15;;;13.40;45.40;;;;;;4993479;28;20030;-59
2021/04/14 12:41:19;;;;;;;5.03;2.00;;;13.10;44.90;;;;;;4994488;28;20026;-57
2021/04/14 12:43:45;;;;;;;11.05;1.98;;;12.80;45.20;;;;;;4994259;28;20187;-59
2021/04/14 12:46:11;;;;;;;2.53;1.63;;;13.40;46.30;;;;;;4990931;28;20169;-59
2021/04/14 12:48:40;;;;;;;4.05;2.03;;;13.80;45.20;;;;;;4993559;28;20033;-60
2021/04/14 12:51:23;;;;;;;3.00;1.45;;;13.90;44.80;;;;;;5009930;28;20026;-59
2021/04/14 12:53:51;;;;;;;4.32;2.08;;;13.90;45.10;;;;;;4993745;28;20117;-59
2021/04/14 12:56:38;;;;;;;4.25;1.75;;;14.00;44.90;;;;;;5011731;28;20112;-58
2021/04/14 12:59:10;;;;;;;3.67;1.60;;;13.80;45.00;;;;;;5009815;28;20021;-59
2021/04/14 13:01:37;;;;;;;3.47;1.40;;;13.80;45.30;;;;;;4958372;28;20033;-60
2021/04/14 13:04:07;;;;;;;2.13;1.33;;;13.50;45.80;;;;;;4973175;28;20464;-58
2021/04/14 13:06:44;;;;;;;3.40;1.60;;;13.20;45.20;;;;;;4974279;28;20149;-58
2021/04/14 13:09:11;;;;;;;2.03;1.13;;;13.10;45.80;;;;;;4974211;28;20138;-59
2021/04/14 13:12:01;;;;;;;3.15;1.20;;;13.40;45.10;;;;;;4973505;28;20062;-59
2021/04/14 13:14:26;;;;;;;4.57;1.45;;;14.40;45.70;;;;;;4972758;28;20044;-59